Time;durP1;ratioP1;P1;durP2;ratioP2;P2;SDS_P1;SDS_P2;PMS_P1;PMS_P2;Temp;Humidity;BMP_temperature;BMP_pressure;BME280_temperature;BME280_humidity;BME280_pressure;Samples;Min_cycle;Max_cycle;Signal;HPM_P1;HPM_P2
2022/08/19 00:01:38;;;;;;;4.15;2.13;;;;;;;18.83;64.38;92324.22;2011637;71;20196;-76
2022/08/19 00:04:08;;;;;;;4.68;1.95;;;;;;;18.88;64.59;92320.81;2017294;71;20274;-74
2022/08/19 00:06:36;;;;;;;4.57;2.15;;;;;;;18.46;66.40;92320.44;2017465;71;20146;-74
2022/08/19 00:09:05;;;;;;;3.83;2.17;;;;;;;18.81;64.17;92318.50;2017489;71;20162;-73
2022/08/19 00:11:31;;;;;;;4.40;2.10;;;;;;;18.89;63.57;92322.28;2017693;71;20255;-74
2022/08/19 00:13:57;;;;;;;2.60;1.83;;;;;;;18.87;64.71;92327.91;2017241;71;20636;-73
2022/08/19 00:16:24;;;;;;;5.78;2.20;;;;;;;18.81;65.00;92332.75;2017455;71;20246;-77
2022/08/19 00:18:49;;;;;;;6.28;2.10;;;;;;;18.75;65.68;92314.09;2017379;71;20547;-73
2022/08/19 00:21:16;;;;;;;3.30;1.80;;;;;;;18.84;64.60;92309.31;2017621;71;20165;-73
2022/08/19 00:23:42;;;;;;;5.25;2.22;;;;;;;18.75;64.17;92316.94;2019278;71;20157;-73
2022/08/19 00:26:10;;;;;;;5.95;2.50;;;;;;;18.31;65.55;92330.03;2019824;71;20237;-74
2022/08/19 00:28:36;;;;;;;6.90;2.40;;;;;;;18.53;65.71;92319.94;2018626;71;20703;-74
2022/08/19 00:31:04;;;;;;;3.67;2.10;;;;;;;18.68;64.02;92323.16;2020447;71;20246;-75
2022/08/19 00:33:32;;;;;;;3.30;2.40;;;;;;;18.64;65.10;92326.59;2020588;71;20177;-74
2022/08/19 00:36:01;;;;;;;3.92;2.20;;;;;;;18.63;65.22;92327.28;2020005;71;20220;-74
2022/08/19 00:38:27;;;;;;;3.38;1.85;;;;;;;18.65;64.28;92316.69;2017461;71;20670;-75
2022/08/19 00:40:54;;;;;;;6.72;2.10;;;;;;;18.54;66.30;92323.50;2019387;71;20264;-74
2022/08/19 00:43:22;;;;;;;5.47;1.98;;;;;;;18.64;64.60;92317.34;2020453;71;20162;-73
2022/08/19 00:45:49;;;;;;;3.25;2.03;;;;;;;18.70;64.31;92318.25;2020828;71;20304;-73
2022/08/19 00:48:16;;;;;;;3.00;2.05;;;;;;;18.59;65.61;92315.78;2020537;71;20176;-73
2022/08/19 00:50:44;;;;;;;5.32;1.80;;;;;;;18.66;64.94;92311.69;2020802;71;20555;-73
2022/08/19 00:53:12;;;;;;;5.78;2.10;;;;;;;18.69;65.53;92304.66;2018628;71;20603;-73
2022/08/19 00:55:39;;;;;;;3.92;1.90;;;;;;;18.81;62.86;92298.53;2014173;71;20152;-73
2022/08/19 00:58:11;;;;;;;5.10;2.22;;;;;;;18.50;66.26;92306.31;2017399;71;20207;-73
2022/08/19 01:00:38;;;;;;;7.68;2.20;;;;;;;18.30;65.68;92303.66;2017134;71;20234;-73
2022/08/19 01:03:10;;;;;;;4.38;1.98;;;;;;;18.52;66.14;92307.09;2017327;71;20150;-75
2022/08/19 01:05:39;;;;;;;2.65;2.00;;;;;;;18.46;66.31;92300.50;2017348;71;20193;-74
2022/08/19 01:08:06;;;;;;;5.07;1.90;;;;;;;18.52;65.11;92298.53;2014312;71;20247;-74
2022/08/19 01:10:39;;;;;;;6.18;2.25;;;;;;;18.47;65.75;92307.66;2017329;71;20161;-73
2022/08/19 01:13:05;;;;;;;3.17;2.20;;;;;;;18.61;64.59;92313.72;2017551;71;20568;-75
2022/08/19 01:15:35;;;;;;;3.55;2.10;;;;;;;18.64;64.21;92320.19;2017303;71;20373;-75
2022/08/19 01:18:04;;;;;;;3.67;2.40;;;;;;;18.74;63.10;92335.47;2013892;71;20150;-75
2022/08/19 01:20:30;;;;;;;3.72;2.25;;;;;;;18.45;64.72;92345.38;2014018;71;20240;-74
2022/08/19 01:23:02;;;;;;;4.03;2.40;;;;;;;18.54;63.83;92354.88;2014050;71;20161;-74
2022/08/19 01:25:35;;;;;;;5.72;2.53;;;;;;;18.26;67.54;92354.84;2014248;71;20142;-73
2022/08/19 01:28:00;;;;;;;4.78;2.35;;;;;;;18.26;66.20;92352.72;2017403;71;20181;-75
2022/08/19 01:30:32;;;;;;;3.30;2.33;;;;;;;18.40;65.64;92371.59;2020056;71;20245;-73
2022/08/19 01:32:59;;;;;;;5.82;2.42;;;;;;;18.53;63.91;92370.53;2020258;71;20182;-74
2022/08/19 01:35:28;;;;;;;3.95;2.42;;;;;;;18.47;64.55;92362.53;2020567;71;20594;-74
2022/08/19 01:37:56;;;;;;;4.28;2.20;;;;;;;18.36;66.29;92360.09;2020500;71;20629;-73
2022/08/19 01:40:25;;;;;;;7.05;2.30;;;;;;;18.40;65.42;92360.91;2020416;71;20502;-73
2022/08/19 01:42:53;;;;;;;3.20;2.17;;;;;;;18.48;65.46;92357.56;2019801;71;20327;-74
2022/08/19 01:45:20;;;;;;;4.50;2.10;;;;;;;18.58;64.73;92360.69;2018524;71;20211;-73
2022/08/19 01:47:46;;;;;;;3.47;1.90;;;;;;;18.61;64.98;92347.94;2017174;71;20260;-74
2022/08/19 01:50:13;;;;;;;4.07;2.00;;;;;;;18.65;63.59;92353.03;2017274;71;20169;-73
2022/08/19 01:52:43;;;;;;;5.70;2.17;;;;;;;18.63;63.86;92347.97;2017252;71;20181;-74
2022/08/19 01:55:13;;;;;;;3.75;2.00;;;;;;;18.66;64.85;92349.47;2017328;71;20538;-74
2022/08/19 01:57:42;;;;;;;3.00;1.88;;;;;;;18.68;64.13;92337.41;2017364;71;20169;-73
2022/08/19 02:00:11;;;;;;;2.88;1.70;;;;;;;18.72;63.85;92334.69;2017064;71;20164;-75
2022/08/19 02:02:37;;;;;;;4.13;2.10;;;;;;;18.76;63.22;92335.50;2017088;71;20491;-78
2022/08/19 02:05:06;;;;;;;4.80;2.17;;;;;;;18.73;64.48;92338.97;2014073;71;20164;-76
2022/08/19 02:07:32;;;;;;;3.85;2.10;;;;;;;18.49;66.02;92336.22;2017578;71;20226;-75
2022/08/19 02:09:58;;;;;;;2.90;1.80;;;;;;;18.65;64.82;92328.09;2017032;71;20170;-74
2022/08/19 02:12:24;;;;;;;4.38;2.00;;;;;;;18.61;64.56;92319.44;2013907;71;20140;-74
2022/08/19 02:14:49;;;;;;;3.33;1.90;;;;;;;18.66;65.18;92308.84;2016939;71;20222;-73
2022/08/19 02:17:15;;;;;;;4.70;2.00;;;;;;;18.84;62.87;92312.16;2017265;71;20261;-72
2022/08/19 02:19:40;;;;;;;4.95;2.00;;;;;;;18.69;63.57;92296.09;2017205;71;20184;-73
2022/08/19 02:22:06;;;;;;;4.68;2.20;;;;;;;18.26;66.86;92289.31;2019193;71;20534;-74
2022/08/19 02:24:35;;;;;;;5.88;2.47;;;;;;;18.29;65.82;92279.44;2017124;71;20173;-75
2022/08/19 02:27:00;;;;;;;3.65;2.10;;;;;;;18.64;65.39;92291.69;2017134;71;20656;-73
2022/08/19 02:29:26;;;;;;;5.28;2.22;;;;;;;18.53;66.41;92293.56;2017168;71;20253;-74
2022/08/19 02:31:51;;;;;;;4.25;2.30;;;;;;;18.63;65.04;92290.22;2017488;71;20582;-74
2022/08/19 02:34:17;;;;;;;4.38;2.38;;;;;;;18.54;66.10;92300.72;2017934;71;20160;-75
2022/08/19 02:36:43;;;;;;;6.47;2.40;;;;;;;18.45;66.79;92311.19;2018066;71;20590;-74
2022/08/19 02:39:10;;;;;;;3.08;2.00;;;;;;;18.72;63.07;92312.59;2021245;71;20153;-77
2022/08/19 02:41:36;;;;;;;7.28;2.45;;;;;;;18.48;65.90;92321.25;2020967;71;20258;-75
2022/08/19 02:44:04;;;;;;;7.20;2.30;;;;;;;18.48;65.69;92329.78;2020904;71;20156;-73
2022/08/19 02:46:32;;;;;;;4.70;2.33;;;;;;;18.28;67.37;92341.41;2021008;71;20492;-73
2022/08/19 02:49:04;;;;;;;4.50;2.55;;;;;;;18.42;65.18;92340.31;2021019;71;20198;-74
2022/08/19 02:51:36;;;;;;;3.28;2.10;;;;;;;18.65;63.74;92341.63;2018252;71;20240;-73
2022/08/19 02:54:03;;;;;;;3.80;2.42;;;;;;;18.53;66.81;92347.72;2020612;71;20567;-75
2022/08/19 02:56:30;;;;;;;4.28;2.20;;;;;;;18.52;66.77;92338.44;2018339;71;20165;-75
2022/08/19 02:58:57;;;;;;;5.40;2.30;;;;;;;18.47;67.64;92339.03;2013933;71;20277;-75
2022/08/19 03:01:26;;;;;;;4.20;2.20;;;;;;;18.56;66.27;92342.81;2019050;71;20245;-75
2022/08/19 03:03:53;;;;;;;3.58;1.95;;;;;;;18.56;67.14;92343.53;2017629;71;20634;-76
2022/08/19 03:06:20;;;;;;;4.85;2.25;;;;;;;18.57;66.40;92325.03;2020571;71;20149;-77
2022/08/19 03:08:48;;;;;;;4.15;2.50;;;;;;;18.63;66.46;92318.75;2020784;71;20581;-74
2022/08/19 03:11:20;;;;;;;4.32;2.15;;;;;;;18.52;66.45;92309.22;2020773;71;20223;-77
2022/08/19 03:13:48;;;;;;;5.18;2.30;;;;;;;18.64;65.56;92311.63;2020635;71;20169;-73
2022/08/19 03:16:15;;;;;;;4.82;2.53;;;;;;;18.58;66.87;92308.66;2017340;71;20202;-79
2022/08/19 03:18:41;;;;;;;6.15;2.60;;;;;;;18.63;65.15;92302.34;2017712;71;20603;-76
2022/08/19 03:21:07;;;;;;;5.95;2.60;;;;;;;18.55;66.27;92316.41;2017911;71;20150;-72
2022/08/19 03:23:35;;;;;;;3.80;2.30;;;;;;;18.60;66.74;92309.44;2020879;71;20177;-74
2022/08/19 03:26:05;;;;;;;3.63;2.50;;;;;;;18.66;66.05;92314.56;2021260;71;20148;-73
2022/08/19 03:28:31;;;;;;;5.22;2.30;;;;;;;18.67;65.76;92313.16;2021698;71;20168;-72
2022/08/19 03:31:03;;;;;;;5.40;2.60;;;;;;;18.65;66.06;92310.25;2021622;71;20184;-73
2022/08/19 03:33:31;;;;;;;2.45;2.15;;;;;;;18.49;66.57;92324.81;2021623;71;20173;-74
2022/08/19 03:36:19;;;;;;;4.30;2.15;;;;;;;18.61;66.00;92313.72;2021548;71;20146;-72
2022/08/19 03:38:49;;;;;;;4.45;2.17;;;;;;;18.74;62.94;92309.09;2019064;71;20141;-76
2022/08/19 03:41:18;;;;;;;2.80;2.00;;;;;;;18.82;64.46;92292.16;2018860;71;20507;-76
2022/08/19 03:43:46;;;;;;;3.05;2.00;;;;;;;18.81;64.88;92290.69;2018844;71;20145;-76
2022/08/19 03:46:15;;;;;;;5.57;2.13;;;;;;;18.79;64.34;92296.38;2019417;71;20173;-77
2022/08/19 03:48:42;;;;;;;5.75;2.22;;;;;;;18.76;63.89;92294.88;2013069;71;20142;-79
2022/08/19 03:51:17;;;;;;;2.97;2.00;;;;;;;18.80;65.44;92292.09;2020720;71;20145;-74
2022/08/19 03:53:43;;;;;;;3.72;2.15;;;;;;;18.31;68.31;92290.16;2019005;71;20166;-74
2022/08/19 03:56:10;;;;;;;3.45;2.08;;;;;;;18.42;67.80;92277.63;2018250;71;20156;-76
2022/08/19 03:58:37;;;;;;;4.40;2.20;;;;;;;18.58;65.39;92286.56;2017835;71;20195;-75
2022/08/19 04:01:11;;;;;;;2.80;2.05;;;;;;;18.73;65.66;92302.63;2017619;71;20197;-74
2022/08/19 04:03:36;;;;;;;3.35;2.22;;;;;;;18.70;67.09;92306.13;2017932;71;20623;-73
2022/08/19 04:06:26;;;;;;;3.80;2.10;;;;;;;18.75;66.79;92304.81;2018398;71;20153;-72
2022/08/19 04:08:54;;;;;;;4.47;2.47;;;;;;;18.70;67.11;92304.00;2017883;71;20165;-73
2022/08/19 04:11:28;;;;;;;3.50;1.92;;;;;;;18.72;65.60;92300.47;2017805;71;20626;-73
2022/08/19 04:13:55;;;;;;;3.53;2.08;;;;;;;18.76;64.38;92309.84;2017586;71;20157;-74
2022/08/19 04:16:24;;;;;;;4.57;2.38;;;;;;;18.68;67.75;92309.59;2016439;71;20150;-74
2022/08/19 04:18:50;;;;;;;4.05;2.30;;;;;;;18.69;65.93;92316.81;2017418;71;20173;-72
2022/08/19 04:21:19;;;;;;;4.03;2.30;;;;;;;18.76;64.88;92331.94;2017564;71;20181;-74
2022/08/19 04:23:45;;;;;;;4.65;2.45;;;;;;;18.72;66.47;92334.69;2017647;71;20144;-74
2022/08/19 04:26:21;;;;;;;4.95;2.10;;;;;;;18.84;63.79;92332.13;2017954;71;20185;-76
2022/08/19 04:28:47;;;;;;;5.28;2.30;;;;;;;18.78;66.90;92337.66;2017926;71;20660;-75
2022/08/19 04:31:25;;;;;;;4.97;2.45;;;;;;;18.76;65.65;92317.66;2019926;71;20193;-75
2022/08/19 04:34:00;;;;;;;4.13;2.22;;;;;;;18.76;65.56;92320.53;2021055;71;20164;-74
2022/08/19 04:36:33;;;;;;;4.93;2.20;;;;;;;18.46;68.26;92317.59;2017917;71;20238;-76
2022/08/19 04:39:01;;;;;;;5.22;2.50;;;;;;;18.60;64.80;92317.22;2023721;71;20161;-75
2022/08/19 04:44:12;;;;;;;4.75;2.20;;;;;;;18.68;66.07;92335.25;2024647;71;20232;-74
2022/08/19 04:46:38;;;;;;;4.07;2.20;;;;;;;18.65;66.38;92338.75;2024612;71;20215;-75
2022/08/19 04:49:05;;;;;;;4.70;2.35;;;;;;;18.69;64.94;92364.53;2024921;71;20606;-74
2022/08/19 04:51:32;;;;;;;4.20;2.58;;;;;;;18.78;64.96;92369.78;2022778;71;20188;-76
2022/08/19 04:53:59;;;;;;;4.55;2.35;;;;;;;18.79;65.37;92371.22;2021485;71;20232;-78
2022/08/19 04:56:26;;;;;;;5.00;2.50;;;;;;;18.83;64.85;92359.22;2021491;71;20172;-77
2022/08/19 04:58:53;;;;;;;5.80;2.33;;;;;;;18.81;67.00;92347.00;2021515;71;20159;-74
2022/08/19 05:01:24;;;;;;;5.13;2.22;;;;;;;18.76;66.38;92338.34;2023750;71;20243;-74
2022/08/19 05:03:52;;;;;;;3.85;2.25;;;;;;;18.54;68.58;92347.03;2024664;71;20237;-75
2022/08/19 05:06:20;;;;;;;6.93;2.83;;;;;;;18.05;70.03;92339.31;2022378;71;20279;-74
2022/08/19 05:08:47;;;;;;;8.38;2.50;;;;;;;18.51;70.11;92344.81;2024033;71;20200;-74
2022/08/19 05:11:17;;;;;;;6.97;2.67;;;;;;;18.66;67.87;92348.75;2018161;71;20169;-74
2022/08/19 05:13:45;;;;;;;5.90;2.95;;;;;;;18.71;67.42;92339.66;2018194;71;20169;-75
2022/08/19 05:16:12;;;;;;;5.15;2.40;;;;;;;18.77;67.93;92324.81;2023972;71;20152;-75
2022/08/19 05:24:10;;;;;;;3.95;2.60;;;;;;;18.91;63.55;92302.34;2023811;71;20250;-78
2022/08/19 05:26:41;;;;;;;4.75;2.83;;;;;;;18.24;72.39;92292.84;2022365;71;20173;-75
2022/08/19 05:29:08;;;;;;;4.38;2.67;;;;;;;18.67;66.72;92282.50;2022420;71;20312;-73
2022/08/19 05:31:35;;;;;;;8.18;3.00;;;;;;;18.65;66.64;92282.47;2022512;71;20247;-74
2022/08/19 05:34:01;;;;;;;5.97;3.25;;;;;;;18.66;69.85;92295.31;2022506;71;20261;-74
2022/08/19 05:36:32;;;;;;;5.18;3.17;;;;;;;18.73;68.18;92313.31;2022258;71;20161;-75
2022/08/19 05:38:58;;;;;;;8.85;3.33;;;;;;;18.56;69.38;92320.00;2022316;71;20164;-77
2022/08/19 05:41:30;;;;;;;6.20;3.38;;;;;;;18.64;69.96;92326.59;2022331;71;20160;-78
2022/08/19 05:44:02;;;;;;;7.47;3.15;;;;;;;18.87;65.91;92330.03;2019321;71;20215;-78
2022/08/19 05:46:28;;;;;;;4.00;2.90;;;;;;;18.82;66.61;92337.78;2022445;71;20161;-74
2022/08/19 05:48:56;;;;;;;8.10;3.60;;;;;;;18.48;70.76;92343.31;2022745;71;20163;-75
2022/08/19 05:51:23;;;;;;;4.85;3.42;;;;;;;18.25;71.86;92347.69;2022402;71;20220;-75
2022/08/19 05:53:50;;;;;;;6.10;3.20;;;;;;;18.11;73.04;92359.44;2019841;71;20252;-74
2022/08/19 05:56:17;;;;;;;8.15;4.05;;;;;;;18.18;73.68;92358.19;2020656;71;20244;-74
2022/08/19 05:58:45;;;;;;;6.38;3.65;;;;;;;18.43;71.12;92351.03;2022796;71;20662;-74
2022/08/19 06:01:15;;;;;;;5.38;3.30;;;;;;;18.60;71.35;92349.34;2019380;71;20149;-73
2022/08/19 06:03:41;;;;;;;6.20;3.55;;;;;;;18.70;68.42;92348.91;2022753;71;20235;-77
2022/08/19 06:06:08;;;;;;;7.00;3.63;;;;;;;18.73;71.56;92345.41;2022850;71;20626;-73
2022/08/19 06:08:36;;;;;;;5.70;3.38;;;;;;;18.76;71.92;92335.50;2022969;71;20699;-76
2022/08/19 06:11:24;;;;;;;5.22;3.70;;;;;;;18.85;71.02;92327.16;2022749;71;20164;-74
2022/08/19 06:13:53;;;;;;;5.57;3.50;;;;;;;18.90;69.28;92323.00;2022516;71;20157;-78
2022/08/19 06:16:21;;;;;;;6.95;3.53;;;;;;;18.93;69.06;92327.34;2023214;71;20242;-74
2022/08/19 06:18:52;;;;;;;6.03;3.67;;;;;;;18.84;69.01;92323.56;2022121;71;20226;-77
2022/08/19 06:21:24;;;;;;;4.90;3.28;;;;;;;19.01;66.16;92327.53;2022517;71;20165;-77
2022/08/19 06:23:51;;;;;;;9.10;3.20;;;;;;;18.98;66.77;92346.00;2020941;71;20268;-80
2022/08/19 06:26:18;;;;;;;5.05;3.63;;;;;;;18.78;68.57;92340.53;2022818;71;20181;-80
2022/08/19 06:28:46;;;;;;;7.22;3.60;;;;;;;18.78;68.54;92343.38;2019737;71;20160;-79
2022/08/19 06:31:27;;;;;;;6.63;3.80;;;;;;;18.74;69.74;92335.47;2022902;71;20156;-76
2022/08/19 06:33:54;;;;;;;5.80;3.60;;;;;;;18.82;68.19;92331.34;2022105;71;20545;-74
2022/08/19 06:36:27;;;;;;;10.25;4.35;;;;;;;18.60;71.85;92335.09;2022300;71;20198;-75
2022/08/19 06:38:57;;;;;;;6.88;3.97;;;;;;;18.67;71.52;92342.38;2022605;71;20222;-73
2022/08/19 06:41:26;;;;;;;5.10;3.55;;;;;;;18.90;68.43;92342.97;2022693;71;20181;-73
2022/08/19 06:43:53;;;;;;;4.90;3.80;;;;;;;18.93;68.57;92327.34;2022579;71;20200;-73
2022/08/19 06:46:19;;;;;;;7.15;3.55;;;;;;;19.01;67.39;92333.97;2022746;71;20626;-72
2022/08/19 06:48:46;;;;;;;7.38;4.18;;;;;;;18.90;68.96;92340.09;2022538;71;20604;-74
2022/08/19 06:51:15;;;;;;;7.45;4.40;;;;;;;18.88;68.82;92342.91;2022592;71;20226;-75
2022/08/19 06:53:45;;;;;;;5.32;3.72;;;;;;;18.81;69.91;92339.19;2022466;71;20188;-79
2022/08/19 06:56:11;;;;;;;6.25;3.67;;;;;;;18.86;68.95;92340.00;2021650;71;20181;-75
2022/08/19 06:58:40;;;;;;;7.45;4.05;;;;;;;18.83;70.92;92336.41;2019224;71;20576;-76
2022/08/19 07:01:07;;;;;;;5.50;3.78;;;;;;;18.88;69.97;92335.09;2021211;71;20180;-73
2022/08/19 07:03:34;;;;;;;6.47;3.70;;;;;;;19.00;69.76;92335.38;2021221;71;20154;-79
2022/08/19 07:06:19;;;;;;;5.10;3.33;;;;;;;19.12;66.39;92328.50;2021471;71;20284;-73
2022/08/19 07:08:51;;;;;;;6.43;3.83;;;;;;;19.12;69.31;92337.06;2023012;71;20165;-73
2022/08/19 07:11:18;;;;;;;6.80;3.33;;;;;;;19.12;68.65;92340.63;2023279;71;20209;-74
2022/08/19 07:13:45;;;;;;;5.25;3.28;;;;;;;19.17;70.47;92335.75;2023038;71;20171;-79
2022/08/19 07:16:16;;;;;;;5.15;3.55;;;;;;;19.21;69.06;92339.44;2023407;71;20190;-75
2022/08/19 07:18:44;;;;;;;5.82;3.20;;;;;;;19.23;70.96;92328.03;2020146;71;20161;-76
2022/08/19 07:21:14;;;;;;;4.28;3.20;;;;;;;19.26;69.59;92334.53;2023793;71;20321;-77
2022/08/19 07:23:40;;;;;;;7.53;3.17;;;;;;;19.39;66.13;92344.81;2021956;71;20808;-72
2022/08/19 07:26:31;;;;;;;6.78;3.25;;;;;;;19.34;69.79;92348.28;2021798;71;20154;-72
2022/08/19 07:28:59;;;;;;;5.85;3.17;;;;;;;19.27;70.06;92361.66;2023451;71;20168;-74
2022/08/19 07:31:27;;;;;;;5.07;3.30;;;;;;;19.30;69.60;92360.31;2020707;71;20173;-72
2022/08/19 07:33:56;;;;;;;6.38;3.10;;;;;;;19.37;68.77;92358.31;2023673;71;20228;-73
2022/08/19 07:36:31;;;;;;;8.65;3.50;;;;;;;19.38;71.19;92343.38;2021937;71;20196;-82
2022/08/19 07:38:59;;;;;;;4.63;3.15;;;;;;;19.50;66.13;92354.34;2022993;71;20153;-74
2022/08/19 07:41:28;;;;;;;5.78;2.83;;;;;;;19.55;67.76;92350.16;2022592;71;20794;-78
2022/08/19 07:43:54;;;;;;;6.70;3.30;;;;;;;19.56;66.46;92345.91;2023005;71;20145;-82
2022/08/19 07:46:20;;;;;;;7.00;3.03;;;;;;;19.65;68.31;92346.81;2022514;71;20249;-78
2022/08/19 07:48:47;;;;;;;7.18;3.08;;;;;;;19.67;64.31;92341.16;2023258;71;20165;-81
2022/08/19 07:51:17;;;;;;;5.60;3.50;;;;;;;19.42;72.36;92337.75;2023644;71;20229;-73
2022/08/19 07:53:45;;;;;;;7.13;3.88;;;;;;;18.92;75.42;92340.16;2023630;71;20165;-84
2022/08/19 07:56:13;;;;;;;4.30;2.92;;;;;;;19.17;72.82;92335.75;2023811;71;20145;-75
2022/08/19 07:58:42;;;;;;;5.05;3.50;;;;;;;19.12;73.23;92343.50;2023184;71;20517;-73
2022/08/19 08:01:10;;;;;;;8.77;3.50;;;;;;;19.38;71.73;92345.50;2019976;71;20145;-75
2022/08/19 08:09:10;;;;;;;4.68;3.25;;;;;;;19.84;68.50;92342.22;2028445;71;20177;-78
2022/08/19 08:11:39;;;;;;;6.13;3.55;;;;;;;20.15;69.77;92341.44;2028373;71;20179;-75
2022/08/19 08:14:06;;;;;;;4.88;4.03;;;;;;;19.67;71.52;92350.47;2028746;71;20213;-76
2022/08/19 08:16:37;;;;;;;5.82;4.25;;;;;;;20.06;71.87;92351.97;2028243;71;20172;-78
2022/08/19 08:19:07;;;;;;;6.13;3.78;;;;;;;19.62;73.45;92353.91;2028287;71;20156;-75
2022/08/19 08:21:34;;;;;;;6.30;3.97;;;;;;;20.16;71.58;92377.19;2028529;71;20598;-78
2022/08/19 08:24:03;;;;;;;7.72;3.65;;;;;;;20.39;70.30;92383.31;2026910;71;20145;-75
2022/08/19 08:26:35;;;;;;;7.18;3.88;;;;;;;20.66;69.30;92391.00;2025903;71;20214;-84
2022/08/19 08:29:03;;;;;;;5.18;3.30;;;;;;;21.07;67.74;92386.00;2026847;71;20158;-80
2022/08/19 08:31:40;;;;;;;5.95;3.40;;;;;;;21.43;66.38;92383.03;2024073;71;20168;-73
2022/08/19 08:34:08;;;;;;;4.55;3.30;;;;;;;20.80;67.31;92385.56;2022120;71;20169;-80
2022/08/19 08:36:41;;;;;;;6.20;3.47;;;;;;;20.62;69.12;92387.34;2021274;71;20150;-73
2022/08/19 08:39:13;;;;;;;7.15;3.15;;;;;;;21.21;65.83;92394.84;2022690;71;20185;-74
2022/08/19 08:42:04;;;;;;;7.80;3.83;;;;;;;21.31;65.90;92395.06;2022743;71;20180;-75
2022/08/19 08:44:43;;;;;;;5.38;3.30;;;;;;;21.82;65.71;92392.22;2021796;71;20153;-73
2022/08/19 08:47:22;;;;;;;4.93;3.30;;;;;;;22.13;65.02;92402.00;2022864;71;20204;-85
2022/08/19 08:49:56;;;;;;;7.18;3.10;;;;;;;22.35;65.75;92401.53;2023073;71;20168;-79
2022/08/19 08:52:35;;;;;;;5.13;3.38;;;;;;;21.83;65.27;92396.53;2022962;71;20236;-82
2022/08/19 08:55:12;;;;;;;7.75;3.45;;;;;;;21.27;67.98;92400.69;2023625;71;20224;-80
2022/08/19 08:58:15;;;;;;;5.47;3.28;;;;;;;21.51;66.72;92400.34;2022909;71;20173;-74
2022/08/19 09:00:45;;;;;;;3.97;3.05;;;;;;;21.47;65.72;92391.69;2022050;71;20607;-76
2022/08/19 09:03:21;;;;;;;3.25;2.80;;;;;;;21.60;64.05;92391.91;2022532;71;20193;-82
2022/08/19 09:06:30;;;;;;;7.63;3.03;;;;;;;21.61;64.68;92393.34;2022343;71;20173;-74
2022/08/19 09:09:04;;;;;;;6.45;3.15;;;;;;;21.80;63.09;92392.19;2011710;71;20683;-72
2022/08/19 09:12:06;;;;;;;5.05;3.22;;;;;;;21.88;62.01;92398.03;2012013;71;20635;-73
2022/08/19 09:14:45;;;;;;;7.13;3.10;;;;;;;22.17;62.27;92402.03;2011291;71;20257;-72
2022/08/19 09:17:11;;;;;;;6.28;3.20;;;;;;;22.07;63.04;92399.72;2012180;71;20185;-73
2022/08/19 09:20:06;;;;;;;3.97;3.25;;;;;;;21.97;62.65;92402.47;2011876;71;20599;-78
2022/08/19 09:22:36;;;;;;;6.18;2.92;;;;;;;21.76;62.71;92403.59;2009875;71;20162;-79
2022/08/19 09:25:04;;;;;;;11.82;4.32;;;;;;;22.03;62.24;92401.81;2011549;71;20206;-73
2022/08/19 09:27:53;;;;;;;11.40;4.10;;;;;;;22.02;62.80;92411.84;2012466;71;20165;-75
2022/08/19 09:30:26;;;;;;;15.70;4.68;;;;;;;22.30;62.52;92412.22;2012212;71;20183;-78
2022/08/19 09:32:53;;;;;;;5.43;3.15;;;;;;;22.06;64.53;92412.59;2011856;71;20157;-83
2022/08/19 09:35:27;;;;;;;4.00;3.00;;;;;;;21.79;64.08;92416.53;2010064;71;20158;-73
2022/08/19 09:37:53;;;;;;;5.07;2.50;;;;;;;21.75;63.83;92410.72;2011972;71;20221;-73
2022/08/19 09:40:19;;;;;;;3.78;2.38;;;;;;;22.17;63.66;92413.50;2012183;71;20162;-76
2022/08/19 09:42:49;;;;;;;3.47;2.40;;;;;;;21.98;62.93;92423.97;2011525;71;20193;-73
2022/08/19 09:45:16;;;;;;;3.50;2.47;;;;;;;21.21;66.30;92412.03;2020315;71;20153;-73
2022/08/19 09:47:53;;;;;;;;;;;;;;;;;;;;;
2022/08/19 09:50:19;;;;;;;3.33;1.85;;;;;;;21.94;62.38;92411.72;2022170;71;20165;-75
2022/08/19 09:52:46;;;;;;;4.45;2.13;;;;;;;21.79;62.35;92407.94;2022301;71;20226;-77
2022/08/19 09:55:12;;;;;;;2.80;1.90;;;;;;;21.47;62.92;92411.75;2022780;71;20229;-74
2022/08/19 09:57:38;;;;;;;2.63;1.80;;;;;;;21.86;62.84;92412.34;2021915;71;20261;-78
2022/08/19 10:00:07;;;;;;;2.85;1.60;;;;;;;21.98;61.68;92408.91;2022097;71;20164;-77
2022/08/19 10:02:34;;;;;;;2.50;1.30;;;;;;;22.21;61.62;92404.94;2022143;71;20164;-74
2022/08/19 10:07:46;;;;;;;2.72;1.60;;;;;;;22.89;60.83;92405.72;2022715;71;20153;-75
2022/08/19 10:10:12;;;;;;;4.07;1.70;;;;;;;23.11;61.12;92403.09;2021441;71;20196;-75
2022/08/19 10:12:47;;;;;;;1.95;1.42;;;;;;;22.82;60.30;92405.66;2022205;71;20161;-73
2022/08/19 10:15:13;;;;;;;4.50;1.92;;;;;;;22.84;62.09;92419.31;2021916;71;20165;-75
2022/08/19 10:17:38;;;;;;;3.25;1.50;;;;;;;22.96;60.15;92413.00;2022142;71;20629;-74
2022/08/19 10:20:05;;;;;;;4.78;1.75;;;;;;;23.29;58.98;92417.63;2022479;71;20164;-73
2022/08/19 10:22:31;;;;;;;3.63;1.70;;;;;;;23.13;59.28;92408.84;2022556;71;20273;-74
2022/08/19 10:24:57;;;;;;;3.55;1.70;;;;;;;23.28;57.99;92421.22;2022551;71;20245;-73
2022/08/19 10:27:23;;;;;;;4.72;1.52;;;;;;;23.26;57.74;92416.16;2022078;71;20145;-74
2022/08/19 10:29:48;;;;;;;3.15;1.35;;;;;;;23.35;57.51;92411.22;2023842;71;20164;-72
2022/08/19 10:32:14;;;;;;;1.83;1.42;;;;;;;23.74;56.60;92409.41;2023118;71;20157;-72
2022/08/19 10:34:40;;;;;;;1.45;1.10;;;;;;;24.09;56.92;92406.75;2023275;71;20173;-73
2022/08/19 10:37:06;;;;;;;2.15;1.10;;;;;;;24.18;56.15;92411.09;2022655;71;20640;-75
2022/08/19 10:39:36;;;;;;;4.25;1.30;;;;;;;24.22;57.03;92405.38;2023341;71;20236;-76
2022/08/19 10:42:06;;;;;;;1.48;1.20;;;;;;;24.70;56.03;92403.47;2022831;71;20155;-74
2022/08/19 10:44:35;;;;;;;1.65;1.30;;;;;;;24.73;54.69;92399.16;2025245;71;20151;-73
2022/08/19 10:47:01;;;;;;;2.85;1.40;;;;;;;23.94;55.69;92405.94;2023044;71;20180;-77
2022/08/19 10:49:28;;;;;;;2.85;1.40;;;;;;;23.99;55.44;92404.53;2021958;71;20172;-74
2022/08/19 10:57:28;;;;;;;1.38;1.27;;;;;;;24.88;53.82;92394.16;2025377;71;20200;-74
2022/08/19 10:59:55;;;;;;;3.45;1.20;;;;;;;24.77;49.96;92394.13;2025391;71;20273;-74
2022/08/19 11:02:23;;;;;;;1.45;1.30;;;;;;;24.94;51.98;92391.31;2023198;71;20157;-74
2022/08/19 11:04:51;;;;;;;2.10;1.20;;;;;;;25.54;52.28;92390.69;2022851;71;20168;-76
2022/08/19 11:07:17;;;;;;;1.83;1.23;;;;;;;26.52;49.18;92381.88;2022799;71;20573;-79
2022/08/19 11:09:43;;;;;;;1.73;1.30;;;;;;;27.11;49.76;92386.69;2022763;71;20800;-77
2022/08/19 11:12:12;;;;;;;2.35;1.42;;;;;;;33.36;37.84;92400.50;2022626;71;20145;-75
2022/08/19 11:14:39;;;;;;;1.50;0.90;;;;;;;34.73;33.85;92407.13;2022018;71;20206;-76
2022/08/19 11:17:05;;;;;;;1.85;0.90;;;;;;;32.09;33.06;92403.19;2021782;71;20282;-76
2022/08/19 11:19:32;;;;;;;1.27;0.90;;;;;;;30.96;36.69;92401.31;2022068;71;20160;-76
2022/08/19 11:22:01;;;;;;;2.30;1.10;;;;;;;29.59;39.55;92383.41;2016279;71;20165;-73
2022/08/19 11:24:27;;;;;;;2.22;1.10;;;;;;;35.72;30.89;92394.00;2022095;71;20153;-73
2022/08/19 11:26:59;;;;;;;1.73;0.90;;;;;;;34.28;31.40;92394.75;2022011;71;20598;-74
2022/08/19 11:29:29;;;;;;;2.22;0.90;;;;;;;34.05;33.46;92399.91;2022204;71;20145;-79
2022/08/19 11:31:54;;;;;;;1.23;0.82;;;;;;;33.29;33.40;92396.34;2022567;71;20214;-75
2022/08/19 11:34:28;;;;;;;1.40;0.93;;;;;;;30.27;38.03;92374.31;2022568;71;20149;-74
2022/08/19 11:36:59;;;;;;;1.23;0.98;;;;;;;31.37;36.49;92377.22;2019560;71;20181;-74
2022/08/19 11:39:27;;;;;;;2.10;1.10;;;;;;;31.35;35.41;92380.91;2022482;71;20156;-74
2022/08/19 11:41:53;;;;;;;1.92;0.85;;;;;;;31.40;36.88;92383.72;2023081;71;20203;-73
2022/08/19 11:44:19;;;;;;;1.08;0.80;;;;;;;35.04;30.76;92378.22;2023208;71;20203;-74
2022/08/19 11:46:46;;;;;;;2.42;0.90;;;;;;;36.44;27.85;92377.22;2019733;71;20130;-79
2022/08/19 11:49:14;;;;;;;2.72;0.70;;;;;;;39.60;25.00;92381.97;2022760;71;20176;-78
2022/08/19 11:51:42;;;;;;;2.80;0.80;;;;;;;38.80;26.23;92382.50;2022867;71;20157;-76
2022/08/19 11:54:09;;;;;;;1.20;0.70;;;;;;;37.43;26.98;92376.59;2022813;71;20133;-78
2022/08/19 11:56:36;;;;;;;1.75;0.90;;;;;;;35.08;30.60;92371.53;2022622;71;20149;-76
2022/08/19 11:59:02;;;;;;;1.70;0.75;;;;;;;32.27;33.39;92361.22;2022767;71;20221;-80
2022/08/19 12:01:28;;;;;;;1.48;0.70;;;;;;;31.94;34.82;92366.47;2022742;71;20142;-81
2022/08/19 12:03:56;;;;;;;1.00;0.73;;;;;;;31.12;36.19;92356.69;2022712;71;20153;-74
2022/08/19 12:06:29;;;;;;;2.25;1.00;;;;;;;28.57;39.67;92352.16;2022885;71;20192;-74